createdAt,value
2018-10-07T00:01:32.137Z,26.17
2018-10-07T00:04:00.779Z,26.23
2018-10-07T00:06:29.237Z,29.40
2018-10-07T00:08:57.773Z,29.60
2018-10-07T00:11:26.375Z,26.60
2018-10-07T00:13:54.899Z,25.60
2018-10-07T00:16:23.388Z,34.57
2018-10-07T00:18:51.934Z,27.60
2018-10-07T00:21:20.601Z,30.83
2018-10-07T00:23:49.197Z,29.50
2018-10-07T00:26:17.891Z,28.80
2018-10-07T00:28:46.403Z,25.67
2018-10-07T00:31:14.933Z,28.97
2018-10-07T00:33:43.409Z,35.43
2018-10-07T00:36:11.945Z,27.83
2018-10-07T00:38:40.628Z,30.57
2018-10-07T00:41:09.389Z,28.97
2018-10-07T00:43:37.929Z,29.47
2018-10-07T00:46:06.541Z,29.03
2018-10-07T00:48:35.225Z,30.30
2018-10-07T00:51:03.719Z,27.37
2018-10-07T00:53:32.472Z,29.93
2018-10-07T00:56:01.024Z,30.73
2018-10-07T00:58:30.270Z,30.50
2018-10-07T01:00:58.794Z,28.33
2018-10-07T01:03:27.342Z,31.93
2018-10-07T01:05:56.043Z,29.67
2018-10-07T01:08:24.562Z,33.60
2018-10-07T01:10:53.131Z,27.03
2018-10-07T01:13:21.645Z,32.83
2018-10-07T01:15:50.174Z,29.90
2018-10-07T01:18:20.251Z,32.50
2018-10-07T01:20:48.837Z,29.73
2018-10-07T01:23:17.382Z,33.23
2018-10-07T01:25:52.500Z,30.77
2018-10-07T01:28:21.138Z,32.40
2018-10-07T01:30:49.653Z,27.90
2018-10-07T01:33:18.284Z,30.93
2018-10-07T01:35:46.977Z,26.37
2018-10-07T01:38:15.473Z,31.30
2018-10-07T01:40:44.068Z,29.47
2018-10-07T01:43:12.614Z,31.53
2018-10-07T01:45:41.201Z,30.50
2018-10-07T01:48:09.687Z,29.10
2018-10-07T01:50:38.294Z,33.57
2018-10-07T01:53:06.940Z,28.67
2018-10-07T01:55:35.403Z,29.87
2018-10-07T01:58:03.948Z,31.83
2018-10-07T02:00:32.478Z,34.13
2018-10-07T02:03:01.022Z,30.60
2018-10-07T02:05:30.803Z,31.93
2018-10-07T02:07:59.467Z,31.67
2018-10-07T02:10:28.063Z,35.83
2018-10-07T02:12:56.813Z,32.63
2018-10-07T02:15:25.387Z,30.23
2018-10-07T02:17:53.922Z,30.87
2018-10-07T02:20:22.536Z,33.60
2018-10-07T02:22:51.177Z,34.10
2018-10-07T02:25:19.746Z,31.63
2018-10-07T02:27:48.313Z,33.50
2018-10-07T02:30:16.934Z,34.83
2018-10-07T02:32:45.504Z,37.93
2018-10-07T02:35:14.133Z,35.83
2018-10-07T02:37:42.713Z,32.83
2018-10-07T02:40:11.880Z,33.87
2018-10-07T02:42:40.863Z,36.27
2018-10-07T02:45:09.509Z,38.77
2018-10-07T02:47:38.180Z,37.97
2018-10-07T02:50:15.236Z,37.07
2018-10-07T02:52:47.762Z,37.57
2018-10-07T02:55:18.563Z,34.40
2018-10-07T02:57:47.196Z,35.60
2018-10-07T03:00:15.785Z,37.03
2018-10-07T03:02:44.387Z,40.30
2018-10-07T03:05:13.286Z,38.57
2018-10-07T03:07:45.532Z,39.80
2018-10-07T03:10:15.157Z,36.57
2018-10-07T03:12:43.690Z,40.40
2018-10-07T03:15:12.605Z,33.53
2018-10-07T03:17:41.135Z,39.03
2018-10-07T03:20:09.750Z,39.97
2018-10-07T03:22:38.482Z,36.97
2018-10-07T03:25:07.100Z,41.50
2018-10-07T03:27:35.719Z,37.93
2018-10-07T03:30:04.331Z,41.97
2018-10-07T03:32:32.769Z,42.47
2018-10-07T03:35:01.494Z,35.80
2018-10-07T03:37:30.080Z,37.83
2018-10-07T03:39:58.777Z,35.13
2018-10-07T03:42:27.351Z,26.13
2018-10-07T03:44:56.108Z,34.60
2018-10-07T03:47:24.701Z,39.77
2018-10-07T03:49:53.334Z,38.70
2018-10-07T03:52:21.934Z,40.87
2018-10-07T03:54:50.501Z,40.10
2018-10-07T03:57:19.105Z,46.50
2018-10-07T03:59:48.204Z,45.13
2018-10-07T04:02:17.029Z,41.00
2018-10-07T04:04:45.616Z,38.33
2018-10-07T04:07:14.135Z,38.53
2018-10-07T04:09:42.763Z,40.43
2018-10-07T04:12:12.939Z,41.73
2018-10-07T04:14:41.465Z,38.50
2018-10-07T04:17:10.194Z,39.60
2018-10-07T04:19:38.672Z,38.10
2018-10-07T04:22:07.261Z,32.20
2018-10-07T04:24:36.110Z,37.57
2018-10-07T04:27:05.606Z,38.73
2018-10-07T04:29:34.552Z,47.03
2018-10-07T04:32:03.156Z,44.60
2018-10-07T04:34:31.647Z,47.93
2018-10-07T04:37:00.204Z,42.50
2018-10-07T04:39:28.774Z,50.10
2018-10-07T04:41:57.362Z,49.80
2018-10-07T04:44:26.972Z,51.50
2018-10-07T04:46:55.541Z,43.87
2018-10-07T04:49:24.146Z,41.73
2018-10-07T04:51:53.040Z,42.60
2018-10-07T04:54:21.758Z,48.57
2018-10-07T04:56:50.352Z,49.00
2018-10-07T04:59:18.949Z,50.43
2018-10-07T05:01:48.548Z,50.20
2018-10-07T05:04:17.102Z,48.27
2018-10-07T05:06:45.866Z,50.17
2018-10-07T05:09:14.437Z,48.77
2018-10-07T05:11:43.538Z,50.43
2018-10-07T05:14:12.655Z,45.93
2018-10-07T05:16:50.506Z,50.00
2018-10-07T05:19:19.390Z,51.10
2018-10-07T05:21:48.006Z,55.20
2018-10-07T05:24:16.584Z,50.97
2018-10-07T05:26:45.245Z,51.23
2018-10-07T05:29:14.945Z,46.10
2018-10-07T05:31:43.594Z,42.33
2018-10-07T05:34:12.298Z,45.87
2018-10-07T05:36:40.837Z,48.97
2018-10-07T05:39:10.854Z,46.27
2018-10-07T05:41:39.599Z,46.20
2018-10-07T05:44:09.129Z,39.73
2018-10-07T05:46:37.826Z,40.17
2018-10-07T05:49:06.480Z,42.20
2018-10-07T05:51:34.983Z,47.57
2018-10-07T05:54:03.617Z,46.33
2018-10-07T05:56:32.254Z,44.63
2018-10-07T05:59:00.840Z,44.03
2018-10-07T06:01:40.092Z,50.03
2018-10-07T06:04:21.091Z,48.57
2018-10-07T06:06:49.818Z,43.30
2018-10-07T06:09:27.143Z,41.67
2018-10-07T06:11:56.413Z,37.37
2018-10-07T06:14:36.479Z,36.03
2018-10-07T06:17:05.459Z,38.70
2018-10-07T06:19:34.129Z,38.20
2018-10-07T06:22:04.042Z,36.57
2018-10-07T06:24:33.187Z,37.03
2018-10-07T06:27:02.907Z,36.07
2018-10-07T06:29:32.062Z,37.67
2018-10-07T06:32:00.747Z,35.03
2018-10-07T06:34:29.590Z,39.10
2018-10-07T06:36:58.147Z,39.63
2018-10-07T06:39:26.945Z,43.60
2018-10-07T06:41:55.722Z,41.83
2018-10-07T06:44:24.353Z,39.00
2018-10-07T06:46:53.114Z,38.70
2018-10-07T06:49:21.894Z,38.83
2018-10-07T06:51:50.817Z,40.27
2018-10-07T06:54:19.422Z,33.23
2018-10-07T06:56:49.504Z,34.57
2018-10-07T06:59:18.113Z,35.30
2018-10-07T07:01:46.780Z,33.37
2018-10-07T07:04:15.942Z,32.93
2018-10-07T07:06:44.664Z,30.60
2018-10-07T07:09:13.647Z,29.43
2018-10-07T07:11:42.333Z,29.93
2018-10-07T07:14:12.365Z,29.87
2018-10-07T07:16:41.942Z,29.23
2018-10-07T07:19:10.638Z,28.47
2018-10-07T07:21:39.324Z,30.00
2018-10-07T07:24:07.924Z,30.33
2018-10-07T07:26:36.599Z,29.50
2018-10-07T07:29:05.959Z,29.10
2018-10-07T07:31:35.565Z,35.07
2018-10-07T07:34:04.274Z,32.53
2018-10-07T07:36:32.851Z,34.63
2018-10-07T07:39:01.581Z,31.53
2018-10-07T07:41:30.075Z,32.13
2018-10-07T07:43:58.699Z,46.17
2018-10-07T07:46:27.492Z,27.83
2018-10-07T07:48:56.202Z,26.63
2018-10-07T07:51:25.073Z,27.63
2018-10-07T07:53:53.660Z,30.57
2018-10-07T07:56:22.253Z,25.83
2018-10-07T07:58:50.874Z,27.77
2018-10-07T08:01:19.425Z,24.00
2018-10-07T08:03:48.106Z,24.30
2018-10-07T08:06:16.725Z,25.63
2018-10-07T08:08:46.448Z,23.80
2018-10-07T08:11:15.140Z,22.57
2018-10-07T08:13:43.680Z,22.17
2018-10-07T08:16:12.438Z,23.07
2018-10-07T08:18:41.059Z,26.57
2018-10-07T08:21:09.666Z,21.80
2018-10-07T08:23:38.450Z,22.40
2018-10-07T08:26:07.107Z,24.33
2018-10-07T08:28:35.746Z,26.30
2018-10-07T08:31:05.564Z,22.80
2018-10-07T08:33:35.371Z,23.70
2018-10-07T08:36:03.982Z,19.50
2018-10-07T08:38:34.754Z,19.43
2018-10-07T08:41:03.217Z,18.87
2018-10-07T08:43:31.724Z,20.37
2018-10-07T08:46:00.218Z,19.67
2018-10-07T08:48:28.709Z,20.43
2018-10-07T08:50:57.405Z,20.37
2018-10-07T08:53:26.110Z,19.37
2018-10-07T08:55:54.653Z,18.70
2018-10-07T08:58:23.177Z,19.40
2018-10-07T09:00:51.729Z,19.83
2018-10-07T09:03:20.272Z,17.47
2018-10-07T09:05:48.891Z,18.33
2018-10-07T09:08:17.650Z,19.07
2018-10-07T09:10:46.310Z,21.00
2018-10-07T09:13:14.877Z,25.33
2018-10-07T09:15:43.411Z,20.00
2018-10-07T09:18:12.116Z,19.83
2018-10-07T09:20:40.673Z,21.80
2018-10-07T09:23:09.261Z,22.43
2018-10-07T09:25:38.210Z,24.77
2018-10-07T09:28:06.891Z,21.30
2018-10-07T09:30:37.047Z,20.17
2018-10-07T09:33:05.609Z,19.17
2018-10-07T09:35:34.194Z,16.83
2018-10-07T09:38:02.865Z,15.43
2018-10-07T09:40:31.544Z,15.37
2018-10-07T09:43:00.085Z,15.50
2018-10-07T09:45:28.772Z,15.47
2018-10-07T09:47:57.361Z,14.33
2018-10-07T09:50:26.243Z,14.97
2018-10-07T09:52:54.826Z,17.40
2018-10-07T09:55:23.321Z,14.03
2018-10-07T09:57:51.926Z,19.40
2018-10-07T10:00:25.830Z,16.43
2018-10-07T10:02:54.361Z,18.00
2018-10-07T10:05:22.945Z,19.60
2018-10-07T10:07:52.529Z,14.30
2018-10-07T10:10:21.225Z,16.33
2018-10-07T10:12:49.931Z,13.93
2018-10-07T10:15:18.493Z,14.77
2018-10-07T10:17:47.901Z,19.33
2018-10-07T10:20:17.923Z,16.50
2018-10-07T10:23:00.322Z,17.27
2018-10-07T10:26:37.755Z,16.27
2018-10-07T10:29:08.802Z,15.33
2018-10-07T10:31:48.643Z,18.20
2018-10-07T10:35:00.377Z,14.07
2018-10-07T10:37:42.585Z,16.37
2018-10-07T10:40:23.082Z,16.93
2018-10-07T10:43:09.295Z,15.33
2018-10-07T10:46:01.358Z,15.90
2018-10-07T10:48:40.026Z,16.20
2018-10-07T10:52:24.755Z,13.43
2018-10-07T10:55:06.433Z,15.00
2018-10-07T10:57:43.439Z,14.57
2018-10-07T11:00:18.131Z,16.03
2018-10-07T11:04:10.355Z,13.90
2018-10-07T11:06:47.511Z,13.97
2018-10-07T11:09:27.238Z,14.50
2018-10-07T11:12:02.219Z,14.50
2018-10-07T11:14:53.181Z,16.40
2018-10-07T11:17:30.989Z,13.00
2018-10-07T11:20:09.549Z,12.07
2018-10-07T11:22:50.415Z,11.77
2018-10-07T11:25:32.130Z,13.40
2018-10-07T11:28:10.585Z,10.90
2018-10-07T11:30:44.487Z,10.77
2018-10-07T11:33:25.812Z,10.33
2018-10-07T11:36:05.510Z,15.80
2018-10-07T11:39:17.279Z,12.00
2018-10-07T11:41:55.205Z,12.13
2018-10-07T11:44:34.610Z,12.20
2018-10-07T11:47:18.644Z,13.70
2018-10-07T11:49:54.982Z,11.33
2018-10-07T11:52:59.214Z,11.33
2018-10-07T11:55:27.749Z,13.67
2018-10-07T11:57:56.332Z,13.50
2018-10-07T12:00:26.992Z,11.93
2018-10-07T12:02:55.673Z,10.63
2018-10-07T12:05:25.047Z,13.07
2018-10-07T12:07:54.835Z,10.83
2018-10-07T12:10:27.354Z,12.10
2018-10-07T12:12:55.938Z,13.33
2018-10-07T12:15:24.506Z,10.53
2018-10-07T12:17:53.454Z,10.30
2018-10-07T12:20:22.021Z,11.00
2018-10-07T12:22:50.757Z,9.93
2018-10-07T12:25:19.270Z,9.37
2018-10-07T12:27:47.888Z,10.13
2018-10-07T12:30:16.618Z,10.07
2018-10-07T12:32:46.150Z,11.83
2018-10-07T12:35:14.793Z,13.67
2018-10-07T12:37:43.268Z,14.50
2018-10-07T12:40:12.989Z,11.83
2018-10-07T12:42:41.828Z,13.90
2018-10-07T12:45:10.498Z,12.37
2018-10-07T12:47:39.243Z,13.80
2018-10-07T12:50:07.949Z,16.23
2018-10-07T12:52:37.246Z,12.90
2018-10-07T12:55:06.069Z,12.43
2018-10-07T12:57:34.606Z,13.53
2018-10-07T13:00:03.486Z,14.00
2018-10-07T13:02:32.074Z,11.77
2018-10-07T13:05:00.590Z,12.97
2018-10-07T13:07:29.615Z,13.37
2018-10-07T13:09:58.291Z,11.03
2018-10-07T13:12:27.027Z,9.37
2018-10-07T13:14:55.554Z,8.50
2018-10-07T13:17:24.248Z,8.13
2018-10-07T13:19:53.016Z,10.53
2018-10-07T13:22:21.681Z,8.80
2018-10-07T13:24:50.374Z,7.50
2018-10-07T13:27:18.904Z,10.23
2018-10-07T13:29:47.751Z,8.83
2018-10-07T13:32:16.403Z,7.43
2018-10-07T13:34:45.041Z,9.27
2018-10-07T13:37:13.725Z,7.80
2018-10-07T13:39:42.335Z,7.67
2018-10-07T13:42:11.851Z,8.30
2018-10-07T13:44:40.591Z,8.00
2018-10-07T13:47:09.077Z,8.90
2018-10-07T13:49:37.799Z,10.00
2018-10-07T13:52:06.294Z,8.83
2018-10-07T13:54:34.755Z,9.73
2018-10-07T13:57:03.339Z,8.37
2018-10-07T13:59:31.926Z,10.67
2018-10-07T14:02:00.738Z,8.63
2018-10-07T14:04:29.338Z,10.33
2018-10-07T14:06:57.865Z,9.63
2018-10-07T14:09:26.443Z,9.57
2018-10-07T14:11:55.124Z,10.20
2018-10-07T14:14:23.981Z,9.23
2018-10-07T14:16:52.562Z,9.63
2018-10-07T14:19:21.489Z,10.27
2018-10-07T14:21:50.121Z,10.80
2018-10-07T14:24:18.635Z,10.70
2018-10-07T14:26:47.366Z,9.97
2018-10-07T14:29:16.074Z,9.57
2018-10-07T14:31:44.670Z,10.77
2018-10-07T14:34:13.242Z,10.90
2018-10-07T14:36:41.959Z,15.70
2018-10-07T14:39:12.681Z,26.70
2018-10-07T14:41:41.378Z,30.33
2018-10-07T14:44:10.066Z,23.20
2018-10-07T14:46:38.755Z,26.83
2018-10-07T14:49:07.464Z,17.70
2018-10-07T14:51:37.454Z,22.90
2018-10-07T14:54:06.077Z,35.03
2018-10-07T14:56:34.596Z,32.93
2018-10-07T14:59:03.260Z,22.97
2018-10-07T15:01:31.795Z,23.60
2018-10-07T15:04:00.566Z,22.50
2018-10-07T15:06:53.174Z,20.83
2018-10-07T15:09:21.939Z,23.20
2018-10-07T15:11:50.557Z,26.03
2018-10-07T15:14:19.122Z,22.13
2018-10-07T15:16:47.866Z,22.90
2018-10-07T15:21:31.385Z,22.37
2018-10-07T15:24:00.051Z,18.60
2018-10-07T15:26:28.694Z,19.13
2018-10-07T15:28:57.431Z,21.03
2018-10-07T15:31:25.923Z,21.37
2018-10-07T15:33:55.659Z,19.47
2018-10-07T15:36:24.376Z,18.47
2018-10-07T15:38:52.941Z,19.63
2018-10-07T15:41:21.549Z,16.63
2018-10-07T15:43:50.167Z,17.33
2018-10-07T15:46:18.785Z,18.30
2018-10-07T15:48:47.554Z,16.53
2018-10-07T15:51:16.161Z,18.60
2018-10-07T15:53:44.739Z,13.27
2018-10-07T15:56:13.285Z,12.30
2018-10-07T15:58:41.825Z,11.63
2018-10-07T16:01:10.368Z,13.83
2018-10-07T16:03:39.953Z,12.83
2018-10-07T16:06:08.514Z,11.83
2018-10-07T16:08:37.205Z,8.90
2018-10-07T16:11:05.999Z,9.73
2018-10-07T16:13:34.601Z,9.73
2018-10-07T16:16:03.155Z,13.63
2018-10-07T16:18:31.776Z,12.00
2018-10-07T16:21:00.350Z,16.57
2018-10-07T16:23:28.972Z,9.57
2018-10-07T16:25:58.151Z,10.53
2018-10-07T16:28:31.304Z,14.17
2018-10-07T16:30:59.909Z,10.73
2018-10-07T16:33:28.644Z,16.33
2018-10-07T16:35:57.174Z,10.40
2018-10-07T16:38:26.286Z,9.63
2018-10-07T16:40:55.726Z,8.93
2018-10-07T16:43:24.406Z,6.87
2018-10-07T16:45:52.997Z,8.57
2018-10-07T16:48:21.556Z,10.90
2018-10-07T16:50:50.238Z,12.43
2018-10-07T16:53:19.004Z,8.47
2018-10-07T16:55:47.534Z,9.63
2018-10-07T16:58:17.177Z,8.27
2018-10-07T17:00:46.850Z,10.33
2018-10-07T17:03:15.611Z,15.97
2018-10-07T17:05:44.228Z,11.13
2018-10-07T17:08:12.845Z,8.57
2018-10-07T17:10:41.374Z,9.07
2018-10-07T17:13:09.965Z,8.67
2018-10-07T17:15:38.492Z,11.60
2018-10-07T17:18:07.520Z,7.87
2018-10-07T17:20:36.021Z,7.57
2018-10-07T17:23:04.571Z,5.47
2018-10-07T17:25:33.144Z,19.00
2018-10-07T17:28:04.590Z,5.73
2018-10-07T17:30:33.870Z,5.80
2018-10-07T17:33:02.513Z,7.47
2018-10-07T17:35:31.327Z,5.30
2018-10-07T17:37:59.919Z,7.60
2018-10-07T17:40:28.618Z,13.43
2018-10-07T17:42:59.162Z,10.60
2018-10-07T17:45:27.971Z,10.07
2018-10-07T17:47:56.665Z,5.00
2018-10-07T17:50:25.238Z,9.33
2018-10-07T17:52:53.868Z,6.43
2018-10-07T17:55:22.514Z,7.60
2018-10-07T17:57:51.138Z,7.13
2018-10-07T18:00:19.803Z,8.47
2018-10-07T18:02:49.260Z,6.03
2018-10-07T18:05:17.658Z,5.13
2018-10-07T18:07:46.198Z,6.10
2018-10-07T18:10:14.990Z,5.57
2018-10-07T18:12:44.597Z,5.60
2018-10-07T18:15:13.653Z,5.93
2018-10-07T18:17:43.133Z,3.73
2018-10-07T18:20:11.677Z,3.70
2018-10-07T18:22:40.280Z,3.83
2018-10-07T18:25:08.967Z,3.70
2018-10-07T18:27:37.640Z,3.30
2018-10-07T18:30:06.330Z,6.40
2018-10-07T18:32:35.522Z,3.50
2018-10-07T18:35:04.228Z,4.73
2018-10-07T18:37:33.230Z,4.20
2018-10-07T18:40:02.868Z,4.50
2018-10-07T18:42:31.544Z,3.80
2018-10-07T18:45:00.146Z,4.37
2018-10-07T18:47:29.434Z,6.27
2018-10-07T18:49:58.141Z,8.20
2018-10-07T18:52:27.285Z,5.83
2018-10-07T18:54:55.982Z,4.20
2018-10-07T18:57:24.521Z,4.40
2018-10-07T18:59:53.151Z,5.43
2018-10-07T19:02:22.096Z,7.33
2018-10-07T19:04:50.639Z,7.40
2018-10-07T19:07:19.191Z,5.40
2018-10-07T19:09:47.831Z,4.03
2018-10-07T19:12:16.480Z,5.43
2018-10-07T19:14:45.228Z,4.20
2018-10-07T19:17:13.955Z,5.27
2018-10-07T19:19:43.493Z,4.33
2018-10-07T19:22:12.231Z,5.43
2018-10-07T19:24:40.830Z,4.20
2018-10-07T19:27:10.778Z,4.57
2018-10-07T19:29:39.420Z,3.90
2018-10-07T19:32:07.993Z,5.57
2018-10-07T19:34:36.580Z,4.13
2018-10-07T19:37:05.432Z,3.67
2018-10-07T19:39:34.186Z,4.80
2018-10-07T19:42:02.834Z,2.93
2018-10-07T19:44:31.514Z,4.20
2018-10-07T19:47:00.126Z,4.63
2018-10-07T19:49:28.825Z,4.03
2018-10-07T19:51:58.484Z,3.80
2018-10-07T19:54:27.726Z,2.80
2018-10-07T19:56:56.251Z,3.37
2018-10-07T19:59:24.793Z,4.60
2018-10-07T20:01:53.459Z,3.57
2018-10-07T20:04:40.096Z,5.90
2018-10-07T20:07:15.170Z,2.83
2018-10-07T20:09:44.057Z,3.97
2018-10-07T20:12:13.029Z,2.70
2018-10-07T20:14:41.885Z,5.63
2018-10-07T20:17:10.908Z,4.60
2018-10-07T20:19:40.105Z,3.53
2018-10-07T20:22:14.143Z,4.40
2018-10-07T20:24:42.913Z,3.40
2018-10-07T20:27:12.180Z,4.17
2018-10-07T20:29:41.155Z,5.53
2018-10-07T20:32:10.329Z,5.37
2018-10-07T20:34:39.436Z,6.27
2018-10-07T20:37:08.636Z,6.90
2018-10-07T20:39:37.605Z,6.40
2018-10-07T20:42:06.265Z,5.37
2018-10-07T20:44:34.727Z,5.73
2018-10-07T20:47:03.315Z,4.17
2018-10-07T20:49:32.073Z,7.10
2018-10-07T20:52:00.573Z,6.03
2018-10-07T20:54:29.123Z,4.67
2018-10-07T20:56:57.671Z,4.33
2018-10-07T20:59:26.257Z,4.40
2018-10-07T21:01:55.125Z,4.47
2018-10-07T21:04:23.681Z,18.43
2018-10-07T21:06:52.271Z,10.30
2018-10-07T21:09:21.066Z,10.33
2018-10-07T21:11:50.635Z,9.00
2018-10-07T21:14:19.429Z,10.00
2018-10-07T21:20:14.394Z,22.20
2018-10-07T21:22:43.054Z,14.60
2018-10-07T21:25:11.879Z,15.20
2018-10-07T21:27:40.446Z,7.90
2018-10-07T21:30:09.519Z,11.40
2018-10-07T21:32:38.248Z,10.97
2018-10-07T21:35:07.866Z,16.00
2018-10-07T21:37:36.511Z,17.20
2018-10-07T21:40:05.247Z,10.73
2018-10-07T21:42:34.286Z,12.63
2018-10-07T21:45:03.131Z,17.13
2018-10-07T21:47:31.734Z,16.67
2018-10-07T21:50:00.365Z,9.70
2018-10-07T21:52:29.200Z,12.07
2018-10-07T21:54:57.734Z,13.87
2018-10-07T21:57:26.469Z,13.93
2018-10-07T21:59:55.158Z,11.40
2018-10-07T22:02:23.701Z,8.77
2018-10-07T22:04:52.380Z,8.43
2018-10-07T22:07:21.128Z,8.80
2018-10-07T22:09:50.732Z,9.53
2018-10-07T22:12:19.377Z,8.87
2018-10-07T22:14:47.960Z,8.63
2018-10-07T22:17:17.627Z,7.90
2018-10-07T22:19:46.324Z,8.17
2018-10-07T22:22:15.012Z,7.57
2018-10-07T22:24:43.592Z,10.03
2018-10-07T22:27:13.249Z,10.33
2018-10-07T22:29:41.937Z,8.53
2018-10-07T22:32:10.441Z,10.37
2018-10-07T22:34:39.088Z,12.13
2018-10-07T22:37:07.875Z,12.07
2018-10-07T22:39:36.523Z,10.77
2018-10-07T22:42:05.130Z,15.63
2018-10-07T22:44:33.885Z,9.73
2018-10-07T22:47:02.833Z,9.50
2018-10-07T22:49:31.441Z,7.83
2018-10-07T22:51:59.995Z,6.53
2018-10-07T22:54:28.553Z,7.80
2018-10-07T22:56:57.135Z,9.67
2018-10-07T22:59:26.605Z,6.97
2018-10-07T23:01:55.091Z,9.40
2018-10-07T23:04:23.825Z,8.77
2018-10-07T23:06:52.455Z,7.93
2018-10-07T23:09:20.945Z,7.07
2018-10-07T23:11:49.439Z,8.60
2018-10-07T23:14:17.953Z,8.40
2018-10-07T23:16:46.823Z,7.43
2018-10-07T23:19:15.285Z,10.30
2018-10-07T23:21:43.828Z,9.30
2018-10-07T23:24:12.558Z,11.53
2018-10-07T23:26:41.799Z,10.30
2018-10-07T23:29:10.583Z,10.07
2018-10-07T23:31:39.111Z,10.50
2018-10-07T23:34:07.905Z,9.30
2018-10-07T23:36:36.641Z,12.60
2018-10-07T23:39:07.766Z,10.53
2018-10-07T23:41:36.477Z,11.93
2018-10-07T23:44:04.998Z,10.57
2018-10-07T23:46:33.561Z,10.20
2018-10-07T23:49:02.078Z,13.07
2018-10-07T23:51:30.792Z,10.03
2018-10-07T23:53:59.446Z,9.93
2018-10-07T23:56:28.178Z,10.17
2018-10-07T23:58:57.077Z,8.97
